Time;durP1;ratioP1;P1;durP2;ratioP2;P2;SDS_P1;SDS_P2;PMS_P1;PMS_P2;Temp;Humidity;BMP_temperature;BMP_pressure;BME280_temperature;BME280_humidity;BME280_pressure;Samples;Min_cycle;Max_cycle;Signal;HPM_P1;HPM_P2
2022/10/28 00:00:34;;;;;;;16.70;8.80;;;14.60;99.90;;;;;;4957559;28;20396;-93
2022/10/28 00:03:05;;;;;;;13.82;9.25;;;14.00;99.90;;;;;;4937332;28;20293;-95
2022/10/28 00:05:33;;;;;;;17.77;8.45;;;14.50;99.90;;;;;;4934225;28;20046;-93
2022/10/28 00:08:33;;;;;;;14.80;8.45;;;12.70;99.90;;;;;;4941302;28;20053;-92
2022/10/28 00:11:17;;;;;;;13.68;8.85;;;14.00;99.90;;;;;;4947437;28;20050;-93
2022/10/28 00:13:45;;;;;;;9.68;7.30;;;13.90;99.90;;;;;;4949192;28;20043;-93
2022/10/28 00:16:29;;;;;;;13.05;8.20;;;13.80;99.90;;;;;;4956518;28;20082;-92
2022/10/28 00:19:00;;;;;;;12.77;7.55;;;13.10;99.90;;;;;;4946352;28;20054;-94
2022/10/28 00:21:32;;;;;;;13.68;7.85;;;13.40;99.90;;;;;;4964088;28;20066;-94
2022/10/28 00:24:01;;;;;;;11.88;8.15;;;13.90;99.90;;;;;;4964549;28;20112;-93
2022/10/28 00:26:41;;;;;;;11.80;8.30;;;13.80;99.90;;;;;;4951481;28;20110;-95
2022/10/28 00:29:15;;;;;;;12.43;7.60;;;13.80;99.90;;;;;;4960644;28;20058;-93
2022/10/28 00:31:58;;;;;;;13.73;7.40;;;13.80;99.90;;;;;;4976535;28;20085;-93
2022/10/28 00:38:06;;;;;;;14.98;7.43;;;13.30;99.90;;;;;;4977603;28;20140;-94
2022/10/28 00:40:46;;;;;;;14.40;7.70;;;13.90;99.90;;;;;;4955066;28;20644;-94
2022/10/28 00:43:15;;;;;;;13.40;6.95;;;13.80;99.90;;;;;;4955285;28;20054;-94
2022/10/28 00:45:51;;;;;;;14.50;7.95;;;14.00;99.90;;;;;;4953923;28;20053;-94
2022/10/28 00:48:45;;;;;;;14.77;8.15;;;13.80;99.90;;;;;;4936096;28;20072;-93
2022/10/28 00:52:00;;;;;;;14.55;7.60;;;13.80;99.90;;;;;;4939961;28;20054;-94
2022/10/28 00:54:39;;;;;;;11.32;7.18;;;14.00;99.90;;;;;;4961285;28;20055;-94
2022/10/28 01:00:15;;;;;;;13.30;7.85;;;13.80;99.90;;;;;;4967836;28;20113;-93
2022/10/28 01:03:04;;;;;;;15.57;7.90;;;13.90;99.90;;;;;;4973312;28;20057;-95
2022/10/28 01:05:33;;;;;;;10.63;6.72;;;13.70;99.90;;;;;;4951956;28;20068;-92
2022/10/28 01:08:31;;;;;;;19.23;8.40;;;13.00;99.90;;;;;;4951593;28;20086;-93
2022/10/28 01:11:24;;;;;;;12.52;8.30;;;13.60;99.90;;;;;;4965771;28;20069;-94
2022/10/28 01:14:33;;;;;;;13.30;8.40;;;15.10;99.90;;;;;;5177814;23;20054;-91
2022/10/28 01:17:41;;;;;;;13.02;8.32;;;13.90;99.90;;;;;;4961636;28;20074;-91
2022/10/28 01:20:54;;;;;;;11.93;8.02;;;14.90;99.90;;;;;;4947467;28;20047;-93
2022/10/28 01:23:50;;;;;;;16.75;9.18;;;13.80;99.90;;;;;;4846981;29;20065;-92
2022/10/28 01:36:12;;;;;;;11.48;7.88;;;13.70;99.90;;;;;;5056421;23;20058;-93
2022/10/28 01:38:55;;;;;;;15.15;8.57;;;14.30;99.90;;;;;;4943851;28;20042;-92
2022/10/28 01:42:07;;;;;;;12.60;9.02;;;12.90;99.90;;;;;;5565494;23;20122;-94
2022/10/28 01:45:13;;;;;;;16.25;9.32;;;13.70;99.90;;;;;;4984595;28;20113;-94
2022/10/28 01:47:47;;;;;;;15.93;8.88;;;13.60;99.90;;;;;;4967924;28;20101;-94
2022/10/28 01:50:29;;;;;;;14.55;9.32;;;13.60;99.90;;;;;;4958626;28;20130;-94
2022/10/28 01:53:06;;;;;;;13.43;8.88;;;13.50;99.90;;;;;;5142819;23;20760;-94
2022/10/28 01:56:31;;;;;;;14.68;9.70;;;13.50;99.90;;;;;;5116974;23;20062;31
2022/10/28 02:09:16;;;;;;;;;;;;;;;;;;;;;
2022/10/28 02:12:35;;;;;;;19.08;9.55;;;12.20;99.90;;;;;;5294567;23;20111;-93
2022/10/28 02:15:11;;;;;;;15.00;8.90;;;13.20;99.90;;;;;;5235107;23;21078;31
2022/10/28 02:17:40;;;;;;;16.25;10.18;;;13.20;99.90;;;;;;4902498;29;19951;-93
2022/10/28 02:20:39;;;;;;;11.57;8.45;;;13.10;99.90;;;;;;4901563;29;20139;-93
2022/10/28 02:24:02;;;;;;;17.35;9.27;;;13.30;99.90;;;;;;4930918;29;20044;-92
2022/10/28 02:26:44;;;;;;;13.25;9.48;;;13.10;99.90;;;;;;4931955;29;20494;-94
2022/10/28 02:29:47;;;;;;;;;;;;;;;;;;;;;
2022/10/28 02:32:20;;;;;;;11.65;8.60;;;13.20;99.90;;;;;;4927833;29;20040;-94
2022/10/28 02:34:53;;;;;;;13.52;8.95;;;13.00;99.90;;;;;;4901432;29;20060;-92
2022/10/28 02:37:46;;;;;;;15.02;9.65;;;13.10;99.90;;;;;;4899554;29;20051;-94
2022/10/28 02:40:27;;;;;;;11.95;8.35;;;13.10;99.90;;;;;;4924120;29;20132;-95
2022/10/28 02:43:10;;;;;;;13.27;8.30;;;13.60;99.90;;;;;;4933737;29;20040;-92
2022/10/28 02:45:46;;;;;;;10.88;8.13;;;13.10;99.90;;;;;;4900386;29;20104;-94
2022/10/28 02:48:52;;;;;;;12.05;6.80;;;12.90;99.90;;;;;;4900074;29;20155;-93
2022/10/28 02:51:27;;;;;;;13.13;7.15;;;11.40;99.90;;;;;;4914875;29;20159;-94
2022/10/28 02:54:26;;;;;;;11.13;7.93;;;12.90;99.90;;;;;;4904012;29;20081;-93
2022/10/28 02:57:13;;;;;;;10.55;7.70;;;11.90;99.90;;;;;;4888013;29;20067;-94
2022/10/28 02:59:57;;;;;;;10.90;7.63;;;12.90;99.90;;;;;;4890320;29;20060;-93
2022/10/28 03:02:35;;;;;;;13.63;8.63;;;12.90;99.90;;;;;;4920010;29;20055;-94
2022/10/28 03:05:18;;;;;;;13.60;8.55;;;12.70;99.90;;;;;;4904689;29;20052;-93
2022/10/28 03:08:10;;;;;;;13.90;8.73;;;12.80;99.90;;;;;;4894662;29;20048;-93
2022/10/28 03:10:58;;;;;;;15.57;8.23;;;13.40;99.90;;;;;;4891957;29;20056;-94
2022/10/28 03:14:02;;;;;;;10.18;7.47;;;12.90;99.90;;;;;;4946009;29;20137;-91
2022/10/28 03:19:50;;;;;;;14.43;8.60;;;12.60;99.90;;;;;;4914390;29;20060;-93
2022/10/28 03:22:19;;;;;;;15.55;8.85;;;13.50;99.90;;;;;;4898324;29;20055;-94
2022/10/28 03:25:06;;;;;;;15.18;8.82;;;12.60;99.90;;;;;;4902288;29;20059;-93
2022/10/28 03:27:40;;;;;;;12.13;8.38;;;12.80;99.90;;;;;;4934073;29;20100;-94
2022/10/28 03:33:14;;;;;;;;;;;;;;;;;;;;;
2022/10/28 03:36:18;;;;;;;10.63;8.20;;;13.90;99.90;;;;;;5282149;23;20063;-93
2022/10/28 03:39:17;;;;;;;12.80;7.93;;;13.10;99.90;;;;;;4914923;29;20052;-93
2022/10/28 03:41:53;;;;;;;11.18;8.00;;;11.60;99.90;;;;;;4919425;29;20063;-93
2022/10/28 03:44:19;;;;;;;13.27;8.00;;;12.70;99.90;;;;;;4905292;29;20134;-94
2022/10/28 04:14:43;;;;;;;10.85;7.38;;;12.40;99.90;;;;;;5277037;23;20070;-94
2022/10/28 04:17:58;;;;;;;9.35;6.88;;;12.40;99.90;;;;;;4930141;29;20060;-94
2022/10/28 04:20:45;;;;;;;;;;;;;;;;;;;;;
2022/10/28 04:37:54;;;;;;;12.45;7.03;;;12.10;99.90;;;;;;4931831;29;20044;-89
2022/10/28 04:40:30;;;;;;;12.48;7.28;;;12.10;99.90;;;;;;4921356;29;20089;-91
2022/10/28 04:54:29;;;;;;;15.25;7.90;;;12.00;99.90;;;;;;1454773;23;20327;-88
2022/10/28 05:00:55;;;;;;;;;;;;;;;;;;;;;
2022/10/28 05:04:13;;;;;;;10.15;7.05;;;11.10;99.90;;;;;;5524763;23;20053;31
2022/10/28 05:10:19;;;;;;;11.73;6.90;;;12.10;99.90;;;;;;5020421;23;20059;-94
2022/10/28 05:12:56;;;;;;;12.35;6.45;;;12.10;99.90;;;;;;5088247;23;20062;-93
2022/10/28 05:15:37;;;;;;;10.23;7.03;;;12.00;99.90;;;;;;4940806;28;20094;-92
2022/10/28 05:18:03;;;;;;;11.75;6.85;;;12.20;99.90;;;;;;4922003;28;20050;-91
2022/10/28 05:20:32;;;;;;;11.88;8.10;;;10.90;99.90;;;;;;4924115;28;20047;-92
2022/10/28 05:23:18;;;;;;;11.68;7.28;;;13.20;99.90;;;;;;4946557;28;20054;-91
2022/10/28 05:25:46;;;;;;;11.75;7.70;;;12.00;99.90;;;;;;4936746;28;20175;-90
2022/10/28 05:28:15;;;;;;;11.60;7.50;;;12.00;99.90;;;;;;4916087;28;20043;-88
2022/10/28 05:30:49;;;;;;;12.43;6.45;;;12.00;99.90;;;;;;4936026;28;20497;-93
2022/10/28 05:33:23;;;;;;;9.27;6.82;;;11.90;99.90;;;;;;4930020;28;20162;-90
2022/10/28 06:03:35;;;;;;;8.77;7.13;;;11.90;99.90;;;;;;5501724;23;20047;-91
2022/10/28 06:06:04;;;;;;;10.63;7.03;;;12.00;99.90;;;;;;4918824;29;20115;-93
2022/10/28 06:08:33;;;;;;;13.05;7.15;;;11.80;99.90;;;;;;4922829;29;20086;-90
2022/10/28 06:11:04;;;;;;;11.15;6.22;;;11.80;99.90;;;;;;4894365;29;20301;-91
2022/10/28 06:13:30;;;;;;;10.15;7.25;;;11.90;99.90;;;;;;4897193;29;20492;-90
2022/10/28 06:16:04;;;;;;;12.30;6.57;;;11.90;99.90;;;;;;4919339;29;20117;-90
2022/10/28 06:18:33;;;;;;;10.60;7.00;;;10.50;99.90;;;;;;4996097;23;20043;-93
2022/10/28 06:21:01;;;;;;;10.73;6.88;;;11.70;99.90;;;;;;4886975;29;20574;-89
2022/10/28 06:23:35;;;;;;;10.30;7.20;;;11.80;99.90;;;;;;4884219;29;20193;-91
2022/10/28 06:26:03;;;;;;;9.70;6.40;;;11.40;99.90;;;;;;4883062;29;20048;-90
2022/10/28 06:28:32;;;;;;;10.07;7.25;;;11.70;99.90;;;;;;4894489;29;20245;-90
2022/10/28 06:31:07;;;;;;;11.20;6.45;;;11.90;99.90;;;;;;4883312;29;20083;-91
2022/10/28 06:33:33;;;;;;;9.00;5.93;;;11.80;99.90;;;;;;4861485;29;20079;-93
2022/10/28 06:36:05;;;;;;;12.02;6.75;;;10.70;99.90;;;;;;4883774;29;20044;-92
2022/10/28 06:39:26;;;;;;;15.02;7.38;;;11.70;99.90;;;;;;4883281;29;20070;-94
2022/10/28 06:42:07;;;;;;;11.68;7.28;;;10.80;99.90;;;;;;4895588;29;20059;-94
2022/10/28 06:44:43;;;;;;;;;;;;;;;;;;;;;
2022/10/28 06:47:19;;;;;;;11.75;6.78;;;12.10;99.90;;;;;;4916853;29;20028;-92
2022/10/28 06:50:08;;;;;;;;;;;;;;;;;;;;;
2022/10/28 06:52:40;;;;;;;12.60;7.05;;;12.00;99.90;;;;;;5066167;23;20055;-91
2022/10/28 06:55:06;;;;;;;15.13;7.22;;;11.60;99.90;;;;;;4912751;29;20051;-90
2022/10/28 06:57:38;;;;;;;14.23;6.38;;;11.90;99.90;;;;;;4942189;23;20055;-90
2022/10/28 07:00:32;;;;;;;;;;;;;;;;;;;;;
2022/10/28 07:03:19;;;;;;;10.18;6.90;;;12.00;99.90;;;;;;4944655;23;20048;-90
2022/10/28 07:05:45;;;;;;;15.70;7.53;;;12.10;99.90;;;;;;4889325;29;20060;-95
2022/10/28 07:08:27;;;;;;;14.45;7.82;;;12.10;99.90;;;;;;4991066;23;20055;-91
2022/10/28 07:11:06;;;;;;;12.80;7.18;;;11.60;99.90;;;;;;4922453;29;20040;-92
2022/10/28 07:13:33;;;;;;;13.73;7.40;;;12.50;99.90;;;;;;4918624;29;20047;-92
2022/10/28 07:16:04;;;;;;;14.98;8.00;;;12.30;99.90;;;;;;4881548;29;20100;-95
2022/10/28 07:18:33;;;;;;;16.58;8.43;;;12.70;99.90;;;;;;4897164;29;20063;-95
2022/10/28 07:21:01;;;;;;;11.65;8.02;;;12.40;99.90;;;;;;4904400;29;20513;-91
2022/10/28 07:23:40;;;;;;;12.50;8.25;;;12.70;99.90;;;;;;4901774;29;20905;-93
2022/10/28 07:26:09;;;;;;;15.10;7.80;;;11.50;99.90;;;;;;4897199;29;20087;-94
2022/10/28 07:28:35;;;;;;;11.73;7.90;;;12.80;99.90;;;;;;4893912;29;20886;-87
2022/10/28 07:31:01;;;;;;;13.90;7.53;;;13.00;99.90;;;;;;4879484;29;20071;-86
2022/10/28 07:33:27;;;;;;;15.93;9.07;;;13.10;99.90;;;;;;4912666;29;20043;-89
2022/10/28 07:35:52;;;;;;;15.30;8.63;;;13.10;99.90;;;;;;4896485;29;20062;-87
2022/10/28 07:38:18;;;;;;;14.23;8.75;;;13.20;99.90;;;;;;4875883;29;20051;-88
2022/10/28 07:40:44;;;;;;;17.52;8.77;;;13.20;99.90;;;;;;4896796;29;20367;-87
2022/10/28 07:43:10;;;;;;;16.58;9.32;;;13.30;99.90;;;;;;4895079;29;20105;-88
2022/10/28 07:45:37;;;;;;;16.50;8.77;;;13.50;99.90;;;;;;4891197;29;20198;-89
2022/10/28 07:48:04;;;;;;;15.73;8.82;;;13.60;99.90;;;;;;4889100;29;20355;-86
2022/10/28 07:50:33;;;;;;;17.65;8.43;;;14.10;99.90;;;;;;4897946;29;20051;-92
2022/10/28 07:53:01;;;;;;;15.50;8.02;;;14.40;99.90;;;;;;4920910;29;20039;-92
2022/10/28 07:55:30;;;;;;;15.50;8.38;;;13.70;99.90;;;;;;4893998;29;20063;-94
2022/10/28 07:58:04;;;;;;;14.05;9.45;;;13.80;99.90;;;;;;4909944;29;20107;-94
2022/10/28 08:00:30;;;;;;;15.90;8.73;;;15.30;99.90;;;;;;4920169;29;20051;-92
2022/10/28 08:03:00;;;;;;;16.13;9.05;;;14.00;99.90;;;;;;4922893;29;20055;-92
2022/10/28 08:05:37;;;;;;;;;;;;;;;;;;;;;
2022/10/28 08:08:03;;;;;;;18.73;9.07;;;13.50;99.90;;;;;;4923884;29;20089;-93
2022/10/28 08:10:49;;;;;;;15.05;8.48;;;14.50;99.90;;;;;;4907952;29;20051;-94
2022/10/28 08:13:23;;;;;;;12.13;8.30;;;14.40;99.90;;;;;;4906123;29;20299;-91
2022/10/28 08:16:08;;;;;;;;;;;;;;;;;;;;;
2022/10/28 08:18:38;;;;;;;16.15;8.27;;;14.50;99.90;;;;;;4912701;29;20051;-93
2022/10/28 08:21:09;;;;;;;11.32;7.75;;;13.80;99.90;;;;;;4903310;29;20059;-93
2022/10/28 08:23:37;;;;;;;12.95;8.45;;;14.40;99.90;;;;;;4906924;29;20044;-93
2022/10/28 08:26:04;;;;;;;17.50;8.43;;;14.90;99.90;;;;;;4906076;29;20137;-94
2022/10/28 08:28:32;;;;;;;14.27;7.82;;;14.80;99.90;;;;;;4885712;29;20059;-95
2022/10/28 08:31:07;;;;;;;12.32;7.65;;;14.40;99.90;;;;;;4902007;29;20593;-93
2022/10/28 08:33:39;;;;;;;15.90;7.53;;;15.10;99.90;;;;;;4907539;29;20098;-95
2022/10/28 08:36:20;;;;;;;;;;;;;;;;;;;;;
2022/10/28 08:41:44;;;;;;;14.55;7.43;;;15.00;99.90;;;;;;5339951;23;20066;-84
2022/10/28 08:44:09;;;;;;;13.27;7.88;;;14.90;99.90;;;;;;4922500;28;20109;-90
2022/10/28 08:46:38;;;;;;;13.23;7.05;;;15.00;99.90;;;;;;4912074;29;20284;-89
2022/10/28 08:49:11;;;;;;;13.90;7.28;;;15.00;99.90;;;;;;4905579;29;20083;-87
2022/10/28 08:51:47;;;;;;;17.90;7.30;;;15.00;99.90;;;;;;4922109;29;20039;-91
2022/10/28 08:54:35;;;;;;;14.57;7.28;;;15.00;99.90;;;;;;4913684;29;20050;-88
2022/10/28 08:57:06;;;;;;;14.35;7.22;;;15.00;99.90;;;;;;4912896;29;20055;-92
2022/10/28 08:59:37;;;;;;;18.08;7.80;;;15.30;99.90;;;;;;4923829;29;20062;-91
2022/10/28 09:02:20;;;;;;;13.73;7.03;;;15.00;99.90;;;;;;4926604;29;20415;-93
2022/10/28 09:05:01;;;;;;;12.40;6.80;;;15.10;99.90;;;;;;4916473;29;20087;-93
2022/10/28 09:07:27;;;;;;;15.38;7.32;;;15.10;99.90;;;;;;4919043;29;20098;-86
2022/10/28 09:09:54;;;;;;;16.15;8.35;;;14.00;99.90;;;;;;4917365;29;20083;-85
2022/10/28 09:12:47;;;;;;;11.52;6.35;;;15.20;99.90;;;;;;4918030;29;20050;-86
2022/10/28 09:15:36;;;;;;;11.32;6.72;;;14.40;99.90;;;;;;4943816;29;20595;-86
2022/10/28 09:18:21;;;;;;;11.57;6.95;;;15.20;99.90;;;;;;4913788;29;20118;-84
2022/10/28 09:20:53;;;;;;;12.10;6.75;;;14.70;99.90;;;;;;4908974;29;20094;-84
2022/10/28 09:23:28;;;;;;;14.63;6.70;;;15.30;99.90;;;;;;4910080;29;20588;-86
2022/10/28 09:26:05;;;;;;;15.27;6.43;;;14.10;99.90;;;;;;4923403;28;20099;-92
2022/10/28 09:28:56;;;;;;;14.18;6.78;;;15.50;99.90;;;;;;4922619;29;20071;-87
2022/10/28 09:31:42;;;;;;;11.50;7.10;;;14.30;99.90;;;;;;4906116;29;20104;-85
2022/10/28 09:34:16;;;;;;;;;;;15.60;99.90;;;;;;4930069;29;20043;-88
2022/10/28 09:37:00;;;;;;;12.98;7.32;;;14.70;99.90;;;;;;4904188;29;20443;-90
2022/10/28 09:39:40;;;;;;;12.95;7.38;;;15.00;99.90;;;;;;4909963;29;20106;-85
2022/10/28 09:42:09;;;;;;;15.32;6.88;;;14.80;99.90;;;;;;4900771;28;20065;-86
2022/10/28 09:44:49;;;;;;;13.90;6.90;;;15.80;99.90;;;;;;4904406;28;20126;-85
2022/10/28 09:47:21;;;;;;;13.80;6.93;;;15.80;99.90;;;;;;4902362;29;20122;-84
2022/10/28 09:49:48;;;;;;;13.48;6.75;;;15.80;99.90;;;;;;4902043;29;21547;-84
2022/10/28 09:52:54;;;;;;;10.10;6.72;;;16.10;99.90;;;;;;4907743;28;20039;-84
2022/10/28 09:55:21;;;;;;;16.20;7.32;;;16.10;99.90;;;;;;4881679;29;20118;-84
2022/10/28 09:57:47;;;;;;;10.48;6.40;;;16.30;99.90;;;;;;4904220;29;20051;-88
2022/10/28 10:00:15;;;;;;;11.50;6.70;;;16.10;99.90;;;;;;4905739;29;20070;-86
2022/10/28 10:02:41;;;;;;;10.15;6.43;;;16.50;99.90;;;;;;4901932;29;20058;-85
2022/10/28 10:05:16;;;;;;;12.38;6.35;;;16.60;99.90;;;;;;4896108;29;20059;-86
2022/10/28 10:07:58;;;;;;;12.52;5.93;;;16.60;99.90;;;;;;4905281;28;20143;-84
2022/10/28 10:10:38;;;;;;;9.30;6.55;;;16.70;99.90;;;;;;4901454;29;20043;-85
2022/10/28 10:13:07;;;;;;;11.88;5.85;;;16.40;99.90;;;;;;4902722;28;20047;-84
2022/10/28 10:15:45;;;;;;;14.40;6.18;;;16.70;99.90;;;;;;4902493;29;20079;-84
2022/10/28 10:18:21;;;;;;;14.02;6.32;;;16.80;99.90;;;;;;4901914;28;21017;-83
2022/10/28 10:21:00;;;;;;;;;;;16.80;99.90;;;;;;4915829;29;20052;-84
2022/10/28 10:23:36;;;;;;;11.98;5.85;;;16.70;99.90;;;;;;4918834;29;20017;-84
2022/10/28 10:26:03;;;;;;;;;;;15.80;99.90;;;;;;4903023;29;20420;-82
2022/10/28 10:28:30;;;;;;;11.40;5.80;;;16.80;99.90;;;;;;4908195;29;20017;-81
2022/10/28 10:30:58;;;;;;;13.07;5.82;;;17.10;99.90;;;;;;4891914;28;20102;-85
2022/10/28 10:33:30;;;;;;;12.80;5.97;;;17.20;99.90;;;;;;4922445;28;20050;-85
2022/10/28 10:36:22;;;;;;;13.60;6.28;;;17.30;99.90;;;;;;4902698;28;20051;-85
2022/10/28 10:38:52;;;;;;;11.70;6.03;;;17.40;99.90;;;;;;4909284;29;20138;-85
2022/10/28 10:41:38;;;;;;;10.50;6.38;;;17.50;99.90;;;;;;4906948;29;20092;-85
2022/10/28 10:44:29;;;;;;;11.00;6.22;;;17.60;99.90;;;;;;4891846;29;20059;-85
2022/10/28 10:46:58;;;;;;;12.02;5.90;;;17.80;99.90;;;;;;4893768;29;20078;-87
2022/10/28 10:49:25;;;;;;;11.93;6.20;;;17.90;99.90;;;;;;4914177;29;20051;-85
2022/10/28 10:51:55;;;;;;;12.77;5.90;;;18.10;99.90;;;;;;4880730;29;20131;-85
2022/10/28 10:54:23;;;;;;;11.02;5.38;;;18.10;99.90;;;;;;4917575;29;20052;-85
2022/10/28 10:56:50;;;;;;;13.13;5.75;;;18.30;99.90;;;;;;4918056;29;20064;-85
2022/10/28 10:59:31;;;;;;;13.10;6.13;;;18.20;99.90;;;;;;4906588;29;20619;-85
2022/10/28 11:01:58;;;;;;;11.50;5.10;;;17.50;99.90;;;;;;4916050;29;20142;-86
2022/10/28 11:04:26;;;;;;;10.40;5.22;;;18.30;99.90;;;;;;4909215;29;20102;-85
2022/10/28 11:06:55;;;;;;;12.02;5.03;;;18.20;99.90;;;;;;4906729;29;20055;-86
2022/10/28 11:09:41;;;;;;;11.25;5.30;;;18.20;99.90;;;;;;4906028;29;20154;-85
2022/10/28 11:12:14;;;;;;;11.25;6.00;;;18.30;99.90;;;;;;4902939;29;20105;-85
2022/10/28 11:14:54;;;;;;;9.35;4.78;;;18.40;99.90;;;;;;4904555;29;20051;-85
2022/10/28 11:17:31;;;;;;;10.32;4.57;;;18.40;99.90;;;;;;4919454;29;20139;-86
2022/10/28 11:19:59;;;;;;;12.25;4.93;;;18.40;99.90;;;;;;4910712;29;20051;-85
2022/10/28 11:22:47;;;;;;;10.07;5.20;;;18.50;99.90;;;;;;4891401;29;20123;-85
2022/10/28 11:25:42;;;;;;;10.32;5.32;;;18.40;99.90;;;;;;4901799;29;20058;-85
2022/10/28 11:28:32;;;;;;;11.68;5.57;;;18.50;99.90;;;;;;4890556;29;20406;-88
2022/10/28 11:31:22;;;;;;;11.50;5.53;;;18.40;99.90;;;;;;4915440;29;20130;-86
2022/10/28 11:34:19;;;;;;;10.77;4.90;;;18.50;99.90;;;;;;4905445;29;20039;-86
2022/10/28 11:37:08;;;;;;;13.18;5.45;;;18.50;99.90;;;;;;4919819;29;20052;-85
2022/10/28 11:39:44;;;;;;;12.75;5.10;;;18.50;99.90;;;;;;4910863;29;20118;-87
2022/10/28 11:42:29;;;;;;;11.98;5.30;;;18.50;99.90;;;;;;4922209;29;20059;-85
2022/10/28 11:45:27;;;;;;;11.93;5.38;;;18.30;99.90;;;;;;4914289;29;20122;-84
2022/10/28 11:48:25;;;;;;;11.02;5.38;;;18.30;99.90;;;;;;4879535;29;20066;-87
2022/10/28 11:51:23;;;;;;;10.80;5.07;;;18.30;99.90;;;;;;4860862;29;20060;-86
2022/10/28 11:54:02;;;;;;;10.93;4.80;;;18.30;99.90;;;;;;4903477;29;20131;-85
2022/10/28 11:57:00;;;;;;;11.70;5.40;;;18.30;99.90;;;;;;4908085;29;20505;-86
2022/10/28 12:00:01;;;;;;;13.82;5.25;;;18.30;99.90;;;;;;4915754;29;20168;-86
2022/10/28 12:02:37;;;;;;;10.18;5.65;;;18.40;99.90;;;;;;4908241;29;20060;-85
2022/10/28 12:05:27;;;;;;;13.85;4.90;;;18.50;99.90;;;;;;4922148;29;20051;-87
2022/10/28 12:08:01;;;;;;;10.38;5.07;;;18.70;99.90;;;;;;4906369;29;20082;-86
2022/10/28 12:11:09;;;;;;;11.45;5.05;;;18.90;99.90;;;;;;4908973;29;20066;-86
2022/10/28 12:13:45;;;;;;;10.60;4.60;;;19.20;99.90;;;;;;4890624;29;20055;-86
2022/10/28 12:16:30;;;;;;;10.00;5.63;;;19.30;99.90;;;;;;4914739;29;20138;-85
2022/10/28 12:19:28;;;;;;;13.60;5.15;;;19.40;99.90;;;;;;4903705;29;20083;-84
2022/10/28 12:22:21;;;;;;;9.52;4.82;;;19.40;99.90;;;;;;4902069;28;20067;-85
2022/10/28 12:24:48;;;;;;;10.43;5.07;;;19.40;99.90;;;;;;4899592;28;20067;-85
2022/10/28 12:27:32;;;;;;;12.68;4.93;;;19.40;99.90;;;;;;4901519;28;20051;-86
2022/10/28 12:30:06;;;;;;;10.77;5.15;;;19.40;99.90;;;;;;4916902;29;20047;-85
2022/10/28 12:32:35;;;;;;;8.50;5.25;;;19.30;99.90;;;;;;4905343;28;20094;-85
2022/10/28 12:35:12;;;;;;;13.02;4.80;;;19.30;99.90;;;;;;4906203;28;20409;-84
2022/10/28 12:37:48;;;;;;;13.77;5.15;;;19.20;99.90;;;;;;4907690;29;20051;-85
2022/10/28 12:40:39;;;;;;;10.40;5.10;;;19.20;99.90;;;;;;4907694;28;20063;-84
2022/10/28 12:43:25;;;;;;;10.80;5.97;;;19.00;99.90;;;;;;4882620;29;20055;-86
2022/10/28 12:45:55;;;;;;;13.00;5.07;;;19.00;99.90;;;;;;4901752;29;20048;-86
2022/10/28 12:48:38;;;;;;;15.55;5.78;;;18.90;99.90;;;;;;4916725;28;20043;-84
2022/10/28 12:51:10;;;;;;;10.30;4.97;;;18.90;99.90;;;;;;4904856;28;20083;-84
2022/10/28 12:53:43;;;;;;;9.98;4.78;;;18.80;99.90;;;;;;4904630;28;20082;-85
2022/10/28 12:56:22;;;;;;;10.95;5.40;;;18.80;99.90;;;;;;4921451;28;20053;-85
2022/10/28 12:58:51;;;;;;;9.15;4.32;;;18.80;99.90;;;;;;4909123;28;20090;-84
2022/10/28 13:01:20;;;;;;;16.27;5.85;;;18.80;99.90;;;;;;4902450;28;20499;-84
2022/10/28 13:03:49;;;;;;;13.88;5.30;;;18.80;99.90;;;;;;4903038;29;20058;-84
2022/10/28 13:06:30;;;;;;;11.68;5.32;;;18.80;99.90;;;;;;4902521;29;20066;-84
2022/10/28 13:09:14;;;;;;;10.30;5.40;;;18.80;99.90;;;;;;4909350;28;20042;-86
2022/10/28 13:12:17;;;;;;;12.38;5.80;;;18.70;99.90;;;;;;4916471;28;20075;-85
2022/10/28 13:15:16;;;;;;;10.80;5.40;;;17.80;99.90;;;;;;4902750;28;20158;-84
2022/10/28 13:17:55;;;;;;;10.95;5.03;;;18.70;99.90;;;;;;4909118;28;20050;-84
2022/10/28 13:20:45;;;;;;;11.00;5.55;;;18.60;99.90;;;;;;4907598;28;20205;-84
2022/10/28 13:23:23;;;;;;;11.85;5.65;;;18.60;99.90;;;;;;4900312;29;20054;-86
2022/10/28 13:25:55;;;;;;;12.43;5.35;;;18.60;99.90;;;;;;4920384;29;20047;-85
2022/10/28 13:28:23;;;;;;;14.63;6.07;;;18.60;99.90;;;;;;4917472;29;20043;-85
2022/10/28 13:30:57;;;;;;;13.00;5.47;;;18.50;99.90;;;;;;4910239;29;20056;-83
2022/10/28 13:33:28;;;;;;;14.10;6.32;;;18.50;99.90;;;;;;4911112;29;20046;-84
2022/10/28 13:36:08;;;;;;;12.23;5.25;;;18.50;99.90;;;;;;4913838;29;20135;-85
2022/10/28 13:38:35;;;;;;;12.27;5.03;;;18.40;99.90;;;;;;4919281;29;20055;-86
2022/10/28 13:41:01;;;;;;;12.10;4.53;;;18.40;99.90;;;;;;4904562;28;20055;-85
2022/10/28 13:43:48;;;;;;;10.60;4.80;;;18.40;99.90;;;;;;4912282;29;20062;-85
2022/10/28 13:46:52;;;;;;;13.00;4.88;;;18.30;99.90;;;;;;4922616;29;20069;-85
2022/10/28 13:49:34;;;;;;;11.65;5.15;;;18.30;99.90;;;;;;4912537;29;20087;-85
2022/10/28 13:52:10;;;;;;;16.00;5.38;;;18.20;99.90;;;;;;4894191;29;20991;-85
2022/10/28 13:54:42;;;;;;;13.70;4.57;;;18.10;99.90;;;;;;4924728;29;20051;-85
2022/10/28 13:57:22;;;;;;;11.38;4.70;;;18.10;99.90;;;;;;4930531;29;20652;-84
2022/10/28 13:59:50;;;;;;;10.82;4.78;;;18.00;99.90;;;;;;4928792;29;20071;-85
2022/10/28 14:02:34;;;;;;;11.85;4.68;;;18.10;99.90;;;;;;4935081;29;20051;-85
2022/10/28 14:05:06;;;;;;;11.50;4.32;;;18.10;99.90;;;;;;4924920;29;20062;-85
2022/10/28 14:07:37;;;;;;;12.82;4.57;;;18.10;99.90;;;;;;4909931;29;20063;-85
2022/10/28 14:10:29;;;;;;;10.25;4.22;;;18.00;99.90;;;;;;4915216;29;20086;-86
2022/10/28 14:12:59;;;;;;;12.13;4.38;;;18.00;99.90;;;;;;4942607;29;20054;-86
2022/10/28 14:15:32;;;;;;;13.93;4.88;;;18.00;99.90;;;;;;4911188;29;20059;-86
2022/10/28 14:18:14;;;;;;;12.20;4.82;;;18.00;99.90;;;;;;4908768;29;20549;-86
2022/10/28 14:20:43;;;;;;;13.85;4.50;;;18.00;99.90;;;;;;4909579;29;20063;-86
2022/10/28 14:23:21;;;;;;;16.08;4.80;;;17.10;99.90;;;;;;4911897;29;20107;-86
2022/10/28 14:25:49;;;;;;;12.80;4.90;;;18.00;99.90;;;;;;4920813;29;20074;-86
2022/10/28 14:28:30;;;;;;;14.52;4.43;;;18.00;99.90;;;;;;4906598;28;20054;-86
2022/10/28 14:31:11;;;;;;;11.60;4.82;;;17.90;99.90;;;;;;4914898;28;20105;-84
2022/10/28 14:33:40;;;;;;;13.77;4.93;;;17.90;99.90;;;;;;4902749;29;20135;-83
2022/10/28 14:36:32;;;;;;;10.88;5.15;;;17.80;99.90;;;;;;4901261;28;20058;-87
2022/10/28 14:39:39;;;;;;;12.23;5.50;;;17.80;99.90;;;;;;4903074;29;20071;-84
2022/10/28 14:42:16;;;;;;;15.20;5.13;;;17.70;99.90;;;;;;4918604;28;20059;-86
2022/10/28 14:44:57;;;;;;;13.45;4.57;;;16.90;99.90;;;;;;4916016;28;20044;-85
2022/10/28 14:47:36;;;;;;;11.32;4.20;;;17.60;99.90;;;;;;4921119;28;20087;-86
2022/10/28 14:50:17;;;;;;;12.88;4.38;;;17.60;99.90;;;;;;4909367;28;20039;-85
2022/10/28 14:52:45;;;;;;;14.65;4.35;;;17.80;99.90;;;;;;4910466;28;20047;-86
2022/10/28 14:55:28;;;;;;;15.85;4.70;;;17.60;99.90;;;;;;4909915;28;20725;-88
2022/10/28 14:58:15;;;;;;;13.02;4.90;;;17.60;99.90;;;;;;4924934;29;20058;-84
2022/10/28 15:00:57;;;;;;;15.13;5.28;;;17.60;99.90;;;;;;4922142;29;20070;-85
2022/10/28 15:03:23;;;;;;;12.25;4.63;;;17.50;99.90;;;;;;4910455;29;20056;-86
2022/10/28 15:05:49;;;;;;;11.52;5.05;;;17.40;99.90;;;;;;4910447;29;20058;-85
2022/10/28 15:08:16;;;;;;;17.65;5.57;;;17.40;99.90;;;;;;4897858;29;20055;-84
2022/10/28 15:10:47;;;;;;;18.60;5.80;;;17.40;99.90;;;;;;4924816;29;20087;-85
2022/10/28 15:13:16;;;;;;;12.20;4.68;;;17.40;99.90;;;;;;4921734;29;20406;-85
2022/10/28 15:15:54;;;;;;;14.18;4.80;;;17.50;99.90;;;;;;4925037;29;20485;-85
2022/10/28 15:18:25;;;;;;;12.82;4.90;;;17.30;99.90;;;;;;4910026;28;20126;-85
2022/10/28 15:21:14;;;;;;;14.57;5.18;;;17.30;99.90;;;;;;4908532;28;20059;-84
2022/10/28 15:23:43;;;;;;;17.70;5.05;;;17.20;99.90;;;;;;4906618;28;20058;-85
2022/10/28 15:26:15;;;;;;;17.17;5.32;;;17.20;99.90;;;;;;4868674;28;20502;-85
2022/10/28 15:28:42;;;;;;;20.02;5.20;;;17.10;99.90;;;;;;4901041;28;20054;-84
2022/10/28 15:31:10;;;;;;;12.15;4.93;;;17.10;99.90;;;;;;4911781;29;20051;-93
2022/10/28 15:33:40;;;;;;;18.35;5.60;;;17.10;99.90;;;;;;4927494;29;20078;-93
2022/10/28 15:36:13;;;;;;;16.67;4.95;;;17.30;99.90;;;;;;4899470;29;20047;-90
2022/10/28 15:38:45;;;;;;;17.65;4.90;;;17.10;99.90;;;;;;4919060;29;20043;-91
2022/10/28 15:41:23;;;;;;;13.70;5.03;;;17.00;99.90;;;;;;4924491;29;20055;-91
2022/10/28 15:44:00;;;;;;;16.90;5.13;;;16.90;99.90;;;;;;4927213;29;20051;-92
2022/10/28 15:46:32;;;;;;;18.75;5.57;;;16.90;99.90;;;;;;4913818;28;20303;-91
2022/10/28 15:49:02;;;;;;;17.13;5.53;;;16.90;99.90;;;;;;4901495;29;20055;-91
2022/10/28 15:51:30;;;;;;;19.88;5.38;;;16.80;99.90;;;;;;4908065;28;20074;-89
2022/10/28 15:54:19;;;;;;;13.30;5.55;;;16.80;99.90;;;;;;4911445;29;20039;-91